Time;durP1;ratioP1;P1;durP2;ratioP2;P2;SDS_P1;SDS_P2;PMS_P1;PMS_P2;Temp;Humidity;BMP_temperature;BMP_pressure;BME280_temperature;BME280_humidity;BME280_pressure;Samples;Min_cycle;Max_cycle;Signal;HPM_P1;HPM_P2
2022/12/13 00:02:08;;;;;;;16.23;11.75;;;;;;;-3.26;100.00;101267.59;5136118;27;20047;-36
2022/12/13 00:04:33;;;;;;;16.90;11.97;;;;;;;-3.32;100.00;101270.72;5136250;27;20070;-36
2022/12/13 00:06:59;;;;;;;14.20;10.60;;;;;;;-3.43;100.00;101255.78;5136361;27;20383;-36
2022/12/13 00:09:24;;;;;;;17.48;12.23;;;;;;;-3.39;100.00;101267.78;5135562;27;20062;-37
2022/12/13 00:11:50;;;;;;;20.90;11.97;;;;;;;-3.36;100.00;101264.88;5136131;27;20079;-36
2022/12/13 00:14:15;;;;;;;18.35;12.48;;;;;;;-3.54;100.00;101255.84;5136229;27;20492;-36
2022/12/13 00:16:45;;;;;;;18.00;12.32;;;;;;;-3.56;100.00;101260.41;5135841;27;20023;-36
2022/12/13 00:19:11;;;;;;;18.90;11.60;;;;;;;-3.50;100.00;101260.75;5135476;27;20023;-36
2022/12/13 00:21:36;;;;;;;21.73;12.37;;;;;;;-3.59;100.00;101250.97;5135517;27;20042;-36
2022/12/13 00:24:04;;;;;;;23.27;13.23;;;;;;;-3.55;100.00;101259.47;5136455;27;20174;-36
2022/12/13 00:26:31;;;;;;;18.67;11.27;;;;;;;-3.64;100.00;101242.56;5135300;27;20031;-36
2022/12/13 00:29:05;;;;;;;18.23;12.35;;;;;;;-3.71;100.00;101250.19;5134183;27;20448;-36
2022/12/13 00:31:30;;;;;;;20.45;12.95;;;;;;;-3.76;100.00;101265.56;5135657;27;20375;-36
2022/12/13 00:33:57;;;;;;;20.52;12.73;;;;;;;-3.77;100.00;101253.34;5135365;27;20028;-36
2022/12/13 00:36:23;;;;;;;20.98;13.13;;;;;;;-3.87;100.00;101260.34;5135479;27;20027;-36
2022/12/13 00:38:59;;;;;;;19.30;12.23;;;;;;;-3.77;100.00;101255.13;5133789;27;20039;-36
2022/12/13 00:41:26;;;;;;;21.70;11.83;;;;;;;-3.75;100.00;101254.06;5135639;27;20360;-36
2022/12/13 00:43:52;;;;;;;19.40;13.48;;;;;;;-3.80;100.00;101250.13;5134604;27;20606;-36
2022/12/13 00:46:20;;;;;;;17.70;11.37;;;;;;;-3.84;100.00;101252.19;5135311;27;20023;-36
2022/12/13 00:48:50;;;;;;;16.95;11.27;;;;;;;-3.88;100.00;101259.50;5135937;27;20609;-36
2022/12/13 00:51:16;;;;;;;16.80;11.98;;;;;;;-3.91;100.00;101254.47;5135379;27;20084;-36
2022/12/13 00:53:42;;;;;;;20.30;12.63;;;;;;;-3.98;100.00;101237.47;5135988;27;20034;-36
2022/12/13 00:56:12;;;;;;;20.88;12.80;;;;;;;-3.89;100.00;101255.19;5135130;27;20425;-36
2022/12/13 00:58:39;;;;;;;21.63;12.90;;;;;;;-4.02;100.00;101238.69;5135549;27;20023;-36
2022/12/13 01:01:07;;;;;;;18.00;11.77;;;;;;;-4.04;100.00;101255.63;5135644;27;20027;-36
2022/12/13 01:03:32;;;;;;;17.15;11.15;;;;;;;-4.01;100.00;101256.19;5133705;27;20031;-36
2022/12/13 01:05:58;;;;;;;17.92;11.77;;;;;;;-4.01;100.00;101245.63;5134841;27;20034;-36
2022/12/13 01:08:24;;;;;;;17.67;12.02;;;;;;;-3.97;100.00;101247.06;5135235;27;20031;-36
2022/12/13 01:10:50;;;;;;;20.00;11.93;;;;;;;-3.94;100.00;101249.47;5134717;27;20530;-36
2022/12/13 01:13:15;;;;;;;18.07;10.80;;;;;;;-3.89;100.00;101252.56;5134077;27;20146;-36
2022/12/13 01:15:42;;;;;;;17.53;11.97;;;;;;;-3.99;100.00;101250.81;5134896;27;20031;-36
2022/12/13 01:18:07;;;;;;;20.52;11.50;;;;;;;-3.96;100.00;101246.09;5135130;27;20031;-36
2022/12/13 01:20:33;;;;;;;17.90;11.40;;;;;;;-4.01;100.00;101245.63;5134542;27;20443;-36
2022/12/13 01:22:58;;;;;;;18.52;11.27;;;;;;;-4.02;100.00;101241.31;5134672;27;20502;-36
2022/12/13 01:25:24;;;;;;;15.50;10.47;;;;;;;-4.07;100.00;101235.59;5134538;27;20035;-36
2022/12/13 01:27:49;;;;;;;18.87;11.17;;;;;;;-4.01;100.00;101245.63;5134556;27;20055;-36
2022/12/13 01:30:14;;;;;;;17.77;12.17;;;;;;;-4.07;100.00;101234.75;5134534;27;20069;-36
2022/12/13 01:32:40;;;;;;;18.50;11.50;;;;;;;-3.96;100.00;101242.63;5134904;27;20050;-36
2022/12/13 01:35:05;;;;;;;15.23;10.33;;;;;;;-3.95;100.00;101245.16;5134592;27;20401;-36
2022/12/13 01:37:30;;;;;;;16.70;10.65;;;;;;;-3.96;100.00;101227.59;5133262;27;20023;-36
2022/12/13 01:39:56;;;;;;;19.03;11.67;;;;;;;-3.93;100.00;101226.50;5134184;27;20297;-36
2022/12/13 01:42:21;;;;;;;17.67;10.37;;;;;;;-3.81;100.00;101241.34;5134167;27;20031;-36
2022/12/13 01:45:05;;;;;;;18.23;11.83;;;;;;;-3.83;100.00;101248.56;5134986;27;20038;-36
2022/12/13 01:47:44;;;;;;;17.17;11.05;;;;;;;-3.92;100.00;101244.88;5134696;27;20023;-36
2022/12/13 01:50:33;;;;;;;16.13;10.15;;;;;;;-4.06;100.00;101217.94;5133902;27;20550;-36
2022/12/13 01:52:59;;;;;;;18.08;10.98;;;;;;;-3.91;100.00;101248.34;5134660;27;20383;-36
2022/12/13 01:55:28;;;;;;;17.63;11.10;;;;;;;-3.97;100.00;101236.50;5134121;27;20034;-36
2022/12/13 01:57:57;;;;;;;17.70;11.40;;;;;;;-3.88;100.00;101240.19;5134048;27;20034;-36
2022/12/13 02:00:24;;;;;;;19.85;12.73;;;;;;;-3.98;100.00;101247.19;5134684;27;20031;-36
2022/12/13 02:02:50;;;;;;;18.33;10.82;;;;;;;-3.99;100.00;101240.25;5133905;27;20471;-36
2022/12/13 02:05:26;;;;;;;19.58;11.43;;;;;;;-4.20;100.00;101214.66;5134917;27;20030;-36
2022/12/13 02:07:52;;;;;;;18.73;11.48;;;;;;;-4.01;100.00;101245.63;5133714;27;20452;-36
2022/12/13 02:10:18;;;;;;;15.93;10.88;;;;;;;-3.92;100.00;101244.03;5134145;27;20034;-36
2022/12/13 02:12:44;;;;;;;18.33;10.63;;;;;;;-3.86;100.00;101243.53;5132245;28;20031;-36
2022/12/13 02:15:14;;;;;;;25.45;12.98;;;;;;;-4.03;100.00;101231.72;5133810;27;20023;-36
2022/12/13 02:18:09;;;;;;;18.15;12.25;;;;;;;-4.02;100.00;101238.69;5133278;28;20037;-36
2022/12/13 02:21:01;;;;;;;17.60;10.63;;;;;;;-3.94;100.00;101244.19;5134504;27;20203;-36
2022/12/13 02:23:59;;;;;;;18.60;10.57;;;;;;;-3.90;100.00;101242.13;5134116;27;20055;-36
2022/12/13 02:26:55;;;;;;;18.23;12.00;;;;;;;-3.93;100.00;101243.22;5133960;27;20054;-36
2022/12/13 02:30:07;;;;;;;20.02;11.18;;;;;;;-3.96;100.00;101242.63;5134008;27;20027;-36
2022/12/13 02:32:44;;;;;;;22.33;12.40;;;;;;;-4.08;100.00;101236.56;5134352;27;20367;-36
2022/12/13 02:35:23;;;;;;;17.35;11.13;;;;;;;-4.07;100.00;101238.22;5134113;27;20023;-36
2022/12/13 02:38:03;;;;;;;17.75;11.30;;;;;;;-4.02;100.00;101248.41;5133464;27;20372;-36
2022/12/13 02:40:30;;;;;;;17.42;11.02;;;;;;;-4.03;100.00;101247.56;5133942;27;20039;-36
2022/12/13 02:43:19;;;;;;;16.70;10.73;;;;;;;-3.94;100.00;101238.06;5133517;27;20102;-36
2022/12/13 02:45:47;;;;;;;19.13;11.70;;;;;;;-4.03;100.00;101239.66;5133854;27;20031;-36
2022/12/13 02:48:22;;;;;;;15.65;11.75;;;;;;;-4.10;100.00;101219.97;5133010;28;20201;-36
2022/12/13 02:50:51;;;;;;;16.77;11.20;;;;;;;-4.02;100.00;101225.47;5134127;27;20031;-36
2022/12/13 02:53:18;;;;;;;18.80;13.02;;;;;;;-4.01;100.00;101221.84;5137708;27;20427;-36
2022/12/13 02:55:44;;;;;;;19.33;12.00;;;;;;;-3.99;100.00;101222.59;5137384;27;20027;-36
2022/12/13 02:58:16;;;;;;;18.20;12.90;;;;;;;-4.07;100.00;101209.16;5137598;27;20091;-34
2022/12/13 03:01:02;;;;;;;22.55;13.75;;;;;;;-4.08;100.00;101218.06;5137342;27;20276;-35
2022/12/13 03:03:45;;;;;;;18.63;11.73;;;;;;;-4.09;100.00;101218.19;5137588;27;20083;-35
2022/12/13 03:06:29;;;;;;;17.15;11.38;;;;;;;-4.09;100.00;101211.13;5137575;27;20023;-36
2022/12/13 03:09:06;;;;;;;18.02;12.32;;;;;;;-4.02;100.00;101208.78;5137293;27;20075;-35
2022/12/13 03:14:29;;;;;;;17.92;11.90;;;;;;;-4.01;100.00;101200.72;5136534;27;20037;-35
2022/12/13 03:16:56;;;;;;;18.20;12.90;;;;;;;-4.08;100.00;101212.78;5137022;27;20220;-35
2022/12/13 03:19:21;;;;;;;18.90;12.90;;;;;;;-4.08;100.00;101207.50;5136672;27;20031;-35
2022/12/13 03:21:48;;;;;;;22.00;12.63;;;;;;;-4.04;100.00;101214.22;5136943;27;20365;-35
2022/12/13 03:24:19;;;;;;;19.23;12.32;;;;;;;-3.98;100.00;101213.69;5137679;27;20039;-35
2022/12/13 03:26:47;;;;;;;20.58;11.43;;;;;;;-3.86;100.00;101214.44;5136853;27;20382;-35
2022/12/13 03:29:13;;;;;;;18.58;11.98;;;;;;;-3.77;100.00;101212.84;5136523;27;20027;-36
2022/12/13 03:31:38;;;;;;;19.90;13.52;;;;;;;-4.03;100.00;101202.66;5137263;27;20106;-36
2022/12/13 03:34:03;;;;;;;20.60;12.83;;;;;;;-3.97;100.00;101223.28;5137222;27;20355;-36
2022/12/13 03:36:29;;;;;;;18.17;12.63;;;;;;;-4.05;100.00;101212.53;5136311;27;20142;-36
2022/12/13 03:38:55;;;;;;;19.37;13.10;;;;;;;-3.97;100.00;101218.00;5136694;27;20308;-36
2022/12/13 03:41:32;;;;;;;19.00;12.48;;;;;;;-3.96;100.00;101219.66;5136471;27;20487;-36
2022/12/13 03:44:07;;;;;;;18.45;12.73;;;;;;;-3.90;100.00;101213.06;5136591;27;20023;-36
2022/12/13 03:46:33;;;;;;;22.77;13.80;;;;;;;-4.05;100.00;101212.53;5136695;27;20091;-36
2022/12/13 03:48:59;;;;;;;20.25;13.93;;;;;;;-4.16;100.00;101212.56;5137108;27;20028;-36
2022/12/13 03:51:24;;;;;;;17.60;11.87;;;;;;;-4.06;100.00;101197.63;5137023;27;20474;-36
2022/12/13 03:53:49;;;;;;;20.27;13.17;;;;;;;-4.12;100.00;101189.38;5136380;27;20256;-36
2022/12/13 03:56:15;;;;;;;17.67;11.80;;;;;;;-3.93;100.00;101203.56;5136257;27;20371;-36
2022/12/13 03:58:43;;;;;;;22.05;12.88;;;;;;;-3.82;100.00;101213.25;5135819;27;20328;-36
2022/12/13 04:01:14;;;;;;;23.02;13.80;;;;;;;-3.95;100.00;101205.53;5135743;27;20531;-36
2022/12/13 04:03:42;;;;;;;20.67;13.63;;;;;;;-4.04;100.00;101203.63;5136095;27;20034;-36
2022/12/13 04:06:09;;;;;;;20.63;13.13;;;;;;;-4.09;100.00;101194.44;5136018;27;20106;-36
2022/12/13 04:08:36;;;;;;;20.33;13.82;;;;;;;-4.03;100.00;101207.13;5136022;27;20030;-36
2022/12/13 04:13:31;;;;;;;20.02;11.82;;;;;;;-3.99;100.00;101206.72;5135582;27;20083;-36
2022/12/13 04:13:46;;;;;;;17.95;11.93;;;;;;;-3.97;100.00;101203.97;5135532;27;20072;-36
2022/12/13 04:16:12;;;;;;;21.77;13.37;;;;;;;-4.06;100.00;101208.19;5135839;27;20055;-36
2022/12/13 04:18:37;;;;;;;21.00;12.50;;;;;;;-4.09;100.00;101205.00;5134757;27;20046;-36
2022/12/13 04:21:02;;;;;;;18.87;12.07;;;;;;;-4.07;100.00;101203.88;5135999;27;20103;-36
2022/12/13 04:23:28;;;;;;;22.03;13.03;;;;;;;-4.04;100.00;101198.34;5135711;27;20048;-36
2022/12/13 04:25:53;;;;;;;18.27;11.90;;;;;;;-4.04;100.00;101200.16;5135742;27;20032;-36
2022/12/13 04:28:18;;;;;;;19.63;11.90;;;;;;;-4.05;100.00;101185.25;5135892;27;20023;-36
2022/12/13 04:30:44;;;;;;;18.53;11.67;;;;;;;-3.96;100.00;101195.91;5135616;27;20030;-36
2022/12/13 04:33:09;;;;;;;21.47;13.53;;;;;;;-4.09;100.00;101186.50;5135935;27;20027;-36
2022/12/13 04:35:34;;;;;;;21.13;13.68;;;;;;;-4.13;100.00;101193.84;5135515;27;20038;-36
2022/12/13 04:38:00;;;;;;;22.10;12.43;;;;;;;-4.13;100.00;101180.63;5134136;27;20034;-36
2022/12/13 04:40:25;;;;;;;20.53;13.33;;;;;;;-4.21;100.00;101159.28;5135103;27;20035;-36
2022/12/13 04:42:51;;;;;;;17.77;12.27;;;;;;;-3.88;100.00;101190.81;5135451;27;20467;-36
2022/12/13 04:45:17;;;;;;;19.73;12.38;;;;;;;-3.83;100.00;101192.25;5133714;27;20440;-36
2022/12/13 04:47:43;;;;;;;20.05;13.52;;;;;;;-4.00;100.00;101185.72;5135683;27;20459;-36
2022/12/13 04:50:09;;;;;;;21.83;13.32;;;;;;;-4.00;100.00;101189.22;5135154;27;20082;-36
2022/12/13 04:52:34;;;;;;;;;;;;;;;-3.96;100.00;101180.03;5135005;27;20027;-36
2022/12/13 04:55:00;;;;;;;20.60;12.00;;;;;;;-3.98;100.00;101184.63;5133579;27;19907;-36
2022/12/13 04:57:25;;;;;;;22.17;14.33;;;;;;;-4.03;100.00;101189.47;5135500;27;20373;-36
2022/12/13 04:59:51;;;;;;;21.67;12.90;;;;;;;-3.88;100.00;101189.97;5135227;27;20276;-37
2022/12/13 05:02:16;;;;;;;25.37;14.40;;;;;;;-4.01;100.00;101186.69;5135131;27;20150;-36
2022/12/13 05:04:43;;;;;;;19.37;13.10;;;;;;;-4.08;100.00;101188.16;5134591;27;20026;-36
2022/12/13 05:07:09;;;;;;;20.88;13.70;;;;;;;-4.17;100.00;101173.91;5134769;27;20024;-36
2022/12/13 05:09:35;;;;;;;18.97;12.23;;;;;;;-4.05;100.00;101180.84;5135425;27;20042;-36
2022/12/13 05:12:00;;;;;;;20.52;12.65;;;;;;;-3.92;100.00;101192.03;5134434;27;20033;-36
2022/12/13 05:14:25;;;;;;;19.20;12.67;;;;;;;-3.93;100.00;101173.69;5133835;27;20045;-36
2022/12/13 05:16:50;;;;;;;19.53;12.67;;;;;;;-3.85;100.00;101180.97;5134377;27;20027;-36
2022/12/13 05:19:16;;;;;;;20.70;14.13;;;;;;;-4.00;100.00;101183.94;5134936;27;20026;-36
2022/12/13 05:21:41;;;;;;;20.07;12.43;;;;;;;-3.92;100.00;101185.91;5134188;27;20034;-36
2022/12/13 05:24:07;;;;;;;19.53;12.40;;;;;;;-3.85;100.00;101179.16;5134139;27;20047;-36
2022/12/13 05:26:32;;;;;;;17.83;12.70;;;;;;;-3.82;100.00;101175.41;5134642;27;20037;-36
2022/12/13 05:28:58;;;;;;;21.30;13.90;;;;;;;-3.82;100.00;101170.13;5134647;27;20055;-36
2022/12/13 05:31:23;;;;;;;24.00;13.57;;;;;;;-3.82;100.00;101170.97;5133989;27;20464;-36
2022/12/13 05:33:50;;;;;;;24.33;15.38;;;;;;;-3.97;100.00;101169.63;5134642;27;20038;-36
2022/12/13 05:36:15;;;;;;;;;;;;;;;-3.93;100.00;101163.94;5134691;27;20039;-36
2022/12/13 05:38:40;;;;;;;19.17;13.33;;;;;;;-4.03;100.00;101157.75;5134435;27;20007;-36
2022/12/13 05:41:09;;;;;;;21.93;13.50;;;;;;;-3.84;100.00;101154.41;5134058;27;20029;-36
2022/12/13 05:43:34;;;;;;;23.17;15.43;;;;;;;-3.99;100.00;101150.41;5134209;27;20148;-36
2022/12/13 05:46:00;;;;;;;23.90;13.70;;;;;;;-3.86;100.00;101145.75;5134109;27;20050;-36
2022/12/13 05:48:25;;;;;;;25.27;15.10;;;;;;;-3.93;100.00;101152.53;5134340;27;20027;-36
2022/12/13 05:50:51;;;;;;;23.10;14.73;;;;;;;-3.99;100.00;101153.91;5132568;27;20424;-36
2022/12/13 05:53:17;;;;;;;19.88;13.68;;;;;;;-3.90;100.00;101154.94;5132697;27;20034;-36
2022/12/13 05:55:42;;;;;;;20.30;13.77;;;;;;;-3.82;100.00;101146.34;5133334;27;20035;-36
2022/12/13 05:58:11;;;;;;;21.90;14.00;;;;;;;-4.00;100.00;101114.38;5132485;27;20087;-36
2022/12/13 06:00:37;;;;;;;23.08;14.38;;;;;;;-3.84;100.00;101137.72;5133540;27;20023;-36
2022/12/13 06:03:03;;;;;;;22.85;15.75;;;;;;;-3.92;100.00;101133.91;5132782;27;20031;-36
2022/12/13 06:05:29;;;;;;;19.87;13.00;;;;;;;-3.85;100.00;101147.44;5134105;27;20034;-36
2022/12/13 06:07:55;;;;;;;19.48;13.70;;;;;;;-3.85;100.00;101147.44;5133761;27;20037;-36
2022/12/13 06:10:21;;;;;;;20.38;13.02;;;;;;;-3.78;100.00;101151.25;5134092;27;20110;-36
2022/12/13 06:12:47;;;;;;;24.58;14.82;;;;;;;-3.85;100.00;101133.41;5134557;27;20031;-36
2022/12/13 06:15:12;;;;;;;22.80;12.93;;;;;;;-3.75;100.00;101144.88;5133535;27;20072;-36
2022/12/13 06:17:37;;;;;;;21.93;14.73;;;;;;;-3.68;100.00;101144.19;5132381;28;20092;-36
2022/12/13 06:20:05;;;;;;;24.43;15.37;;;;;;;-3.86;100.00;101155.50;5133738;27;20026;-36
2022/12/13 06:22:31;;;;;;;20.13;12.88;;;;;;;-3.93;100.00;101148.09;5134267;27;20019;-36
2022/12/13 06:24:56;;;;;;;24.88;15.13;;;;;;;-3.98;100.00;101146.81;5129803;27;20115;-36
2022/12/13 06:27:21;;;;;;;21.97;15.53;;;;;;;-3.85;100.00;101158.03;5136694;27;20138;-36
2022/12/13 06:29:47;;;;;;;21.97;14.40;;;;;;;-3.95;100.00;101128.06;5137709;27;20031;-36
2022/12/13 06:32:12;;;;;;;20.77;14.13;;;;;;;-3.78;100.00;101153.03;5138185;27;20494;-36
2022/12/13 06:34:37;;;;;;;22.67;16.00;;;;;;;-3.98;100.00;101158.22;5137645;27;20109;-36
2022/12/13 06:37:05;;;;;;;24.00;14.57;;;;;;;-4.05;100.00;101154.44;5138151;27;20024;-36
2022/12/13 06:39:31;;;;;;;22.65;14.27;;;;;;;-4.04;100.00;101153.44;5138460;27;20055;-36
2022/12/13 06:41:56;;;;;;;21.63;14.77;;;;;;;-3.96;100.00;101163.34;5138433;27;20474;-37
2022/12/13 06:44:21;;;;;;;21.27;13.30;;;;;;;-3.92;100.00;101165.63;5138451;27;20106;-37
2022/12/13 06:46:47;;;;;;;22.60;14.50;;;;;;;-4.00;100.00;101168.09;5138078;27;20023;-36
2022/12/13 06:49:12;;;;;;;20.73;14.37;;;;;;;-3.85;100.00;101165.13;5137324;27;20169;-36
2022/12/13 06:51:37;;;;;;;22.10;14.40;;;;;;;-4.10;100.00;101142.53;5137564;27;20027;-36
2022/12/13 06:54:03;;;;;;;18.40;13.43;;;;;;;-4.00;100.00;101160.16;5137579;27;20027;-36
2022/12/13 06:56:29;;;;;;;21.73;14.13;;;;;;;-3.98;100.00;101160.84;5137465;27;20023;-37
2022/12/13 06:58:55;;;;;;;25.02;16.05;;;;;;;-4.04;100.00;101150.81;5136343;27;20023;-37
2022/12/13 07:01:20;;;;;;;21.25;14.35;;;;;;;-3.98;100.00;101152.09;5137769;27;20049;-36
2022/12/13 07:03:46;;;;;;;20.90;13.33;;;;;;;-3.88;100.00;101161.75;5137901;27;20027;-36
2022/12/13 07:06:14;;;;;;;24.17;15.48;;;;;;;-4.00;100.00;101160.16;5135647;27;20040;-36
2022/12/13 07:08:40;;;;;;;21.70;14.55;;;;;;;-4.01;100.00;101155.81;5137483;27;20027;-34
2022/12/13 07:11:06;;;;;;;23.13;14.23;;;;;;;-4.09;100.00;101166.22;5136804;27;20034;-35
2022/12/13 07:13:32;;;;;;;24.37;15.10;;;;;;;-4.18;100.00;101164.34;5137414;27;20023;-35
2022/12/13 07:15:58;;;;;;;24.83;14.75;;;;;;;-4.05;100.00;101170.28;5136741;27;20030;-35
2022/12/13 07:18:24;;;;;;;21.23;14.93;;;;;;;-4.19;100.00;101150.28;5137661;27;20409;-35
2022/12/13 07:20:49;;;;;;;21.52;14.02;;;;;;;-3.97;100.00;101157.22;5136870;27;20049;-35
2022/12/13 07:23:15;;;;;;;21.17;15.13;;;;;;;-4.12;100.00;101169.09;5136536;27;20027;-35
2022/12/13 07:25:40;;;;;;;23.47;14.07;;;;;;;-4.09;100.00;101168.84;5137554;27;20031;-35
2022/12/13 07:28:07;;;;;;;22.33;13.97;;;;;;;-4.06;100.00;101159.81;5137545;27;20091;-35
2022/12/13 07:30:36;;;;;;;24.02;14.52;;;;;;;-4.07;100.00;101158.16;5136431;27;20345;-35
2022/12/13 07:33:03;;;;;;;20.52;14.00;;;;;;;-3.98;100.00;101155.56;5136720;27;20024;-36
2022/12/13 07:35:28;;;;;;;25.27;16.02;;;;;;;-4.10;100.00;101161.88;5136307;27;20031;-35
2022/12/13 07:37:54;;;;;;;23.00;15.57;;;;;;;-3.96;100.00;101158.06;5135767;27;20035;-35
2022/12/13 07:40:19;;;;;;;25.03;16.47;;;;;;;-3.90;100.00;101165.50;5136064;27;20062;-35
2022/12/13 07:42:52;;;;;;;22.97;16.00;;;;;;;-3.91;100.00;101163.81;5136619;27;20107;-35
2022/12/13 07:45:18;;;;;;;25.17;16.15;;;;;;;-3.98;100.00;101163.50;5136425;27;20023;-35
2022/12/13 07:47:43;;;;;;;26.92;16.75;;;;;;;-4.03;100.00;101163.03;5136490;27;20034;-35
2022/12/13 07:50:09;;;;;;;25.63;16.73;;;;;;;-4.06;100.00;101173.03;5134965;27;20027;-35
2022/12/13 07:52:34;;;;;;;27.05;15.77;;;;;;;-3.95;100.00;101168.53;5136533;27;20095;-35
2022/12/13 07:55:01;;;;;;;27.00;16.63;;;;;;;-4.11;100.00;101170.75;5136563;27;20059;-35
2022/12/13 07:57:26;;;;;;;27.05;16.35;;;;;;;-4.02;100.00;101170.00;5136998;27;20031;-35
2022/12/13 07:59:51;;;;;;;25.00;17.00;;;;;;;-4.04;100.00;101179.88;5135332;27;20027;-36
2022/12/13 08:02:17;;;;;;;28.27;16.80;;;;;;;-3.96;100.00;101180.03;5136141;27;20480;-35
2022/12/13 08:04:42;;;;;;;27.47;17.37;;;;;;;-4.01;100.00;101174.31;5136411;27;20046;-35
2022/12/13 08:07:09;;;;;;;23.85;16.50;;;;;;;-3.94;100.00;101164.09;5136486;27;20133;-35
2022/12/13 08:09:34;;;;;;;;;;;;;;;-3.92;100.00;101176.19;5137215;27;20061;-35
2022/12/13 08:12:00;;;;;;;28.13;17.40;;;;;;;-4.08;100.00;101175.81;5136213;27;19994;-35
2022/12/13 08:14:26;;;;;;;28.35;16.55;;;;;;;-4.12;100.00;101177.00;5135968;27;20268;-35
2022/12/13 08:16:51;;;;;;;33.75;18.77;;;;;;;-4.19;100.00;101174.06;5135835;27;20027;-35
2022/12/13 08:19:16;;;;;;;26.33;17.80;;;;;;;-4.30;100.00;101157.41;5135665;27;20079;-35
2022/12/13 08:21:42;;;;;;;26.07;17.27;;;;;;;-4.24;100.00;101176.25;5135872;27;20026;-35
2022/12/13 08:24:07;;;;;;;28.20;18.27;;;;;;;-4.28;100.00;101179.25;5134206;27;20046;-35
2022/12/13 08:26:33;;;;;;;27.38;17.85;;;;;;;-4.26;100.00;101177.31;5136037;27;20107;-35
2022/12/13 08:28:58;;;;;;;23.53;16.20;;;;;;;-4.10;100.00;101183.00;5135940;27;20027;-35
2022/12/13 08:31:24;;;;;;;27.42;17.50;;;;;;;-4.21;100.00;101168.03;5135323;27;20041;-36
2022/12/13 08:33:49;;;;;;;26.45;17.90;;;;;;;-4.11;100.00;101185.78;5136406;27;20027;-36
2022/12/13 08:36:16;;;;;;;29.67;19.13;;;;;;;-4.15;100.00;101179.91;5135257;27;20467;-36
2022/12/13 08:38:42;;;;;;;29.42;19.90;;;;;;;-4.20;100.00;101171.53;5135971;27;20114;-36
2022/12/13 08:41:08;;;;;;;;;;;;;;;-4.07;100.00;101181.91;5135819;27;20031;-36
2022/12/13 08:43:34;;;;;;;28.05;17.33;;;;;;;-4.18;100.00;101169.63;5134185;27;20011;-36
2022/12/13 08:46:00;;;;;;;;;;;;;;;-4.02;100.00;101175.28;5136257;27;20031;-36
2022/12/13 08:48:26;;;;;;;29.67;18.15;;;;;;;-4.06;100.00;101189.72;5134532;27;19914;-36
2022/12/13 08:50:51;;;;;;;27.73;18.73;;;;;;;-4.08;100.00;101190.81;5134932;27;20035;-36
2022/12/13 08:53:16;;;;;;;30.50;19.60;;;;;;;-3.98;100.00;101189.91;5135212;27;20460;-36
2022/12/13 08:55:42;;;;;;;30.87;20.20;;;;;;;-3.86;100.00;101198.59;5135255;27;20026;-36
2022/12/13 08:58:07;;;;;;;28.30;18.67;;;;;;;-3.75;100.00;101203.84;5135452;27;20047;-36
2022/12/13 09:00:34;;;;;;;30.98;21.13;;;;;;;-3.71;100.00;101207.03;5134930;27;20395;-36
2022/12/13 09:03:02;;;;;;;27.73;18.45;;;;;;;-3.61;100.00;101200.03;5134581;27;20037;-36
2022/12/13 09:05:27;;;;;;;28.73;18.10;;;;;;;-3.56;100.00;101203.13;5135078;27;20068;-36
2022/12/13 09:07:57;;;;;;;31.35;21.27;;;;;;;-3.58;100.00;101199.75;5133872;27;20463;-36
2022/12/13 09:10:23;;;;;;;27.80;18.83;;;;;;;-3.51;100.00;101200.94;5134498;27;20027;-36
2022/12/13 09:12:48;;;;;;;28.05;19.63;;;;;;;-3.60;100.00;101180.56;5134601;27;20034;-36
2022/12/13 09:15:14;;;;;;;29.67;20.15;;;;;;;-3.59;100.00;101195.44;5134775;27;20089;-36
2022/12/13 09:17:39;;;;;;;27.43;19.80;;;;;;;-3.65;100.00;101194.16;5135112;27;20031;-36
2022/12/13 09:20:08;;;;;;;30.37;18.30;;;;;;;-3.53;100.00;101194.06;5134680;27;20023;-36
2022/12/13 09:22:33;;;;;;;30.05;18.95;;;;;;;-3.49;100.00;101188.41;5135199;27;20168;-36
2022/12/13 09:24:58;;;;;;;27.57;20.17;;;;;;;-3.44;100.00;101195.94;5134798;27;20522;-36
2022/12/13 09:27:24;;;;;;;30.70;20.80;;;;;;;-3.39;100.00;101206.97;5134320;27;20360;-36
2022/12/13 09:29:49;;;;;;;28.03;19.57;;;;;;;-3.41;100.00;101193.88;5134480;27;20110;-36
2022/12/13 09:32:15;;;;;;;29.73;20.97;;;;;;;-3.31;100.00;101201.84;5135190;27;20041;-36
2022/12/13 09:34:40;;;;;;;29.77;20.77;;;;;;;-3.27;100.00;101205.91;5135135;27;20658;-36
2022/12/13 09:37:05;;;;;;;30.63;19.80;;;;;;;-3.11;100.00;101200.13;5134852;27;20023;-36
2022/12/13 09:39:31;;;;;;;31.47;20.07;;;;;;;-3.10;100.00;101199.16;5134319;27;20176;-36
2022/12/13 09:41:57;;;;;;;28.83;19.60;;;;;;;-3.01;100.00;101205.44;5134599;27;20054;-36
2022/12/13 09:44:28;;;;;;;30.83;19.73;;;;;;;-2.94;100.00;101199.47;5132832;27;20088;-36
2022/12/13 09:46:56;;;;;;;33.55;21.25;;;;;;;-2.92;100.00;101208.13;5134758;27;20023;-36
2022/12/13 09:49:21;;;;;;;35.00;23.25;;;;;;;-2.82;100.00;101207.31;5134271;27;20033;-36
2022/12/13 09:51:53;;;;;;;31.37;20.53;;;;;;;-2.80;100.00;101195.63;5134890;27;20031;-36
2022/12/13 09:54:21;;;;;;;33.88;21.48;;;;;;;-2.68;100.00;101189.25;5132753;27;20512;-36
2022/12/13 09:56:49;;;;;;;29.02;19.50;;;;;;;-2.56;100.00;101187.31;5134244;27;20437;-36
2022/12/13 09:59:16;;;;;;;30.00;20.92;;;;;;;-2.54;100.00;101180.03;5133822;27;20038;-36
2022/12/13 10:01:41;;;;;;;31.27;21.48;;;;;;;-2.46;100.00;101172.25;5134475;27;20023;-36
2022/12/13 10:04:12;;;;;;;30.23;20.23;;;;;;;-2.31;100.00;101175.31;5134310;27;20038;-36
2022/12/13 10:06:38;;;;;;;27.95;19.73;;;;;;;-2.19;100.00;101171.56;5134044;27;20054;-36
2022/12/13 10:09:08;;;;;;;27.55;19.33;;;;;;;-2.10;100.00;101172.53;5134270;27;20074;-36
2022/12/13 10:11:34;;;;;;;31.83;20.35;;;;;;;-2.11;100.00;101176.16;5134523;27;20213;-36
2022/12/13 10:14:15;;;;;;;28.60;19.37;;;;;;;-2.19;100.00;101160.16;5133967;27;20474;-36
2022/12/13 10:16:48;;;;;;;26.38;19.08;;;;;;;-2.12;100.00;101166.53;5133199;28;20049;-36
2022/12/13 10:19:34;;;;;;;25.98;18.95;;;;;;;-2.15;100.00;101153.56;5133515;27;20023;-36
2022/12/13 10:22:02;;;;;;;31.83;19.95;;;;;;;-2.04;100.00;101158.72;5134440;27;20023;-36
2022/12/13 10:24:47;;;;;;;26.95;19.73;;;;;;;-2.13;100.00;101162.22;5132105;28;20082;-36
2022/12/13 10:27:15;;;;;;;28.50;20.10;;;;;;;-2.26;100.00;101135.19;5134650;27;20031;-36
2022/12/13 10:30:00;;;;;;;28.02;19.25;;;;;;;-2.11;100.00;101139.91;5134353;27;20019;-36
2022/12/13 10:32:27;;;;;;;29.05;19.85;;;;;;;-2.14;100.00;101136.72;5133502;27;20061;-36
2022/12/13 10:34:55;;;;;;;;;;;;;;;-2.03;100.00;101141.84;5134624;27;20031;-36
2022/12/13 10:37:23;;;;;;;26.52;18.75;;;;;;;-2.01;100.00;101142.53;5133690;27;19954;-36
2022/12/13 10:39:48;;;;;;;26.77;18.95;;;;;;;-1.95;100.00;101142.00;5134276;27;20033;-36
2022/12/13 10:42:19;;;;;;;24.30;18.23;;;;;;;-1.90;100.00;101137.09;5133890;27;20478;-36
2022/12/13 10:44:45;;;;;;;24.88;17.85;;;;;;;-1.89;100.00;101135.28;5132056;28;20084;-36
2022/12/13 10:47:22;;;;;;;26.38;18.77;;;;;;;-1.78;100.00;101134.25;5133656;27;20027;-36
2022/12/13 10:50:00;;;;;;;28.73;19.80;;;;;;;-1.80;100.00;101136.25;5134307;27;20034;-36
2022/12/13 10:52:40;;;;;;;27.13;18.58;;;;;;;-1.74;100.00;101125.03;5133505;27;20467;-36
2022/12/13 10:55:25;;;;;;;25.67;18.40;;;;;;;-1.54;100.00;101124.00;5133574;27;20448;-36
2022/12/13 10:57:52;;;;;;;26.92;18.65;;;;;;;-1.54;100.00;101097.47;5133319;27;20070;-36
2022/12/13 11:00:34;;;;;;;25.67;18.15;;;;;;;-1.42;100.00;101104.25;5133408;27;20027;-36
2022/12/13 11:03:00;;;;;;;26.15;17.95;;;;;;;-1.41;100.00;101099.81;5133416;27;20031;-36
2022/12/13 11:05:28;;;;;;;25.23;17.50;;;;;;;-1.32;100.00;101104.19;5133755;27;20030;-36
2022/12/13 11:07:54;;;;;;;26.10;19.15;;;;;;;-1.31;100.00;101101.41;5133178;27;20110;-36
2022/12/13 11:10:23;;;;;;;27.05;18.77;;;;;;;-1.25;100.00;101101.81;5133145;27;20118;-36
2022/12/13 11:12:50;;;;;;;25.23;18.48;;;;;;;-1.25;100.00;101093.84;5136015;27;20053;-36